createdAt,value
2023-04-30T00:01:00.246Z,98
2023-04-30T00:03:28.500Z,100
2023-04-30T00:05:56.764Z,99.9
2023-04-30T00:10:53.275Z,100
2023-04-30T00:13:21.531Z,99.6
2023-04-30T00:15:49.787Z,100
2023-04-30T00:18:18.045Z,100
2023-04-30T00:19:32.776Z,100
2023-04-30T00:20:46.320Z,100
2023-04-30T00:23:14.582Z,100
2023-04-30T00:25:42.834Z,97.6
2023-04-30T00:28:11.101Z,96.7
2023-04-30T00:30:39.358Z,94.3
2023-04-30T00:33:07.610Z,94.8
2023-04-30T00:35:35.865Z,97.5
2023-04-30T00:38:04.122Z,98.8
2023-04-30T00:43:00.639Z,100
2023-04-30T00:44:15.374Z,100
2023-04-30T00:45:28.919Z,100
2023-04-30T00:47:57.171Z,100
2023-04-30T00:50:25.433Z,100
2023-04-30T00:52:53.689Z,99.8
2023-04-30T00:55:21.946Z,98.6
2023-04-30T00:57:50.204Z,100
2023-04-30T01:00:18.458Z,100
2023-04-30T01:02:46.721Z,100
2023-04-30T01:05:14.973Z,100
2023-04-30T01:07:43.230Z,100
2023-04-30T01:08:57.967Z,99.9
2023-04-30T01:12:40.002Z,98.5
2023-04-30T01:15:08.257Z,97
2023-04-30T01:17:36.512Z,97.2
2023-04-30T01:20:04.775Z,96.8
2023-04-30T01:22:33.027Z,98
2023-04-30T01:25:01.291Z,96.4
2023-04-30T01:27:29.543Z,94.5
2023-04-30T01:29:57.805Z,96.4
2023-04-30T01:32:26.061Z,95.2
2023-04-30T01:33:40.787Z,95.5
2023-04-30T01:34:54.342Z,95.5
2023-04-30T01:37:22.601Z,95.5
2023-04-30T01:39:50.849Z,93.6
2023-04-30T01:44:47.371Z,93.2
2023-04-30T01:47:15.624Z,92.8
2023-04-30T01:49:43.880Z,93.1
2023-04-30T01:52:12.136Z,94
2023-04-30T01:54:40.396Z,93.2
2023-04-30T01:57:08.652Z,92.8
2023-04-30T01:58:23.381Z,90.3
2023-04-30T01:59:36.930Z,90.4
2023-04-30T02:02:05.191Z,92.3
2023-04-30T02:04:33.443Z,97.9
2023-04-30T02:07:01.706Z,100
2023-04-30T02:09:29.962Z,100
2023-04-30T02:11:58.217Z,98.5
2023-04-30T02:16:54.730Z,96.6
2023-04-30T02:19:22.987Z,95.6
2023-04-30T02:21:51.252Z,93.1
2023-04-30T02:23:05.982Z,94.5
2023-04-30T02:24:19.522Z,96.5
2023-04-30T02:26:47.787Z,98.8
2023-04-30T02:29:16.043Z,99.7
2023-04-30T02:31:44.297Z,97.8
2023-04-30T02:34:12.555Z,96.8
2023-04-30T02:36:40.811Z,95.6
2023-04-30T02:39:09.068Z,94.8
2023-04-30T02:41:37.322Z,95.2
2023-04-30T02:44:05.585Z,95.2
2023-04-30T02:47:48.563Z,93.5
2023-04-30T02:49:02.110Z,92.8
2023-04-30T02:51:30.368Z,92.8
2023-04-30T02:53:58.634Z,92.6
2023-04-30T02:56:26.882Z,92.6
2023-04-30T02:58:55.165Z,93.3
2023-04-30T03:01:23.403Z,94.2
2023-04-30T03:03:51.656Z,94.7
2023-04-30T03:06:19.910Z,93.5
2023-04-30T03:08:48.170Z,94
2023-04-30T03:11:16.424Z,96.3
2023-04-30T03:12:31.160Z,95.8
2023-04-30T03:13:44.707Z,95.8
2023-04-30T03:18:41.216Z,95
2023-04-30T03:21:09.476Z,95.5
2023-04-30T03:23:37.736Z,95.3
2023-04-30T03:26:05.989Z,95
2023-04-30T03:28:34.241Z,94.3
2023-04-30T03:31:02.507Z,94.3
2023-04-30T03:33:30.765Z,94.7
2023-04-30T03:35:59.022Z,94.7
2023-04-30T03:37:13.747Z,94.3
2023-04-30T03:38:27.295Z,94.5
2023-04-30T03:40:55.547Z,94.2
2023-04-30T03:43:23.807Z,93.4
2023-04-30T03:45:52.065Z,93.1
2023-04-30T03:50:48.576Z,94.7
2023-04-30T03:53:16.834Z,95.6
2023-04-30T03:55:45.090Z,95.9
2023-04-30T03:58:13.354Z,95.3
2023-04-30T04:00:41.610Z,95.4
2023-04-30T04:01:56.331Z,97
2023-04-30T04:03:09.881Z,97.9
2023-04-30T04:05:38.140Z,98.1
2023-04-30T04:08:06.401Z,98
2023-04-30T04:10:34.652Z,96.5
2023-04-30T04:13:02.906Z,97.4
2023-04-30T04:15:31.163Z,97.4
2023-04-30T04:17:59.427Z,96.7
2023-04-30T04:22:55.935Z,97.8
2023-04-30T04:25:24.192Z,99.5
2023-04-30T04:26:38.920Z,99.2
2023-04-30T04:27:52.473Z,98.8
2023-04-30T04:30:20.733Z,98.6
2023-04-30T04:32:48.983Z,97.9
2023-04-30T04:35:17.239Z,97.3
2023-04-30T04:37:45.499Z,97.9
2023-04-30T04:40:13.759Z,96.5
2023-04-30T04:42:42.011Z,99
2023-04-30T04:45:10.274Z,100
2023-04-30T04:47:38.524Z,100
2023-04-30T04:50:06.780Z,100
2023-04-30T04:52:35.039Z,100
2023-04-30T04:55:03.300Z,100
2023-04-30T04:57:31.555Z,100
2023-04-30T04:59:59.811Z,100
2023-04-30T05:02:28.074Z,100
2023-04-30T05:04:56.328Z,100
2023-04-30T05:07:24.584Z,100
2023-04-30T05:09:52.846Z,100
2023-04-30T05:12:21.098Z,100
2023-04-30T05:14:49.352Z,100
2023-04-30T05:16:04.098Z,100
2023-04-30T05:17:17.653Z,100
2023-04-30T05:19:45.909Z,100
2023-04-30T05:24:42.419Z,100
2023-04-30T05:27:10.681Z,100
2023-04-30T05:29:38.938Z,96.9
2023-04-30T05:32:07.186Z,97.8
2023-04-30T05:34:35.452Z,98.1
2023-04-30T05:37:03.700Z,96.5
2023-04-30T05:39:31.961Z,93.3
2023-04-30T05:40:46.694Z,89.6
2023-04-30T05:42:00.241Z,90
2023-04-30T05:44:28.493Z,88.6
2023-04-30T05:46:56.749Z,91.7
2023-04-30T05:49:25.013Z,93.1
2023-04-30T05:51:53.267Z,90.9
2023-04-30T05:56:49.781Z,88.9
2023-04-30T05:59:18.040Z,90.5
2023-04-30T06:01:46.303Z,93
2023-04-30T06:04:14.549Z,95.4
2023-04-30T06:05:29.285Z,92.4
2023-04-30T06:06:42.824Z,94.8
2023-04-30T06:09:11.084Z,95.4
2023-04-30T06:11:39.338Z,94.7
2023-04-30T06:14:07.598Z,87.9
2023-04-30T06:16:35.856Z,80.7
2023-04-30T06:19:04.112Z,73.9
2023-04-30T06:21:32.364Z,76.3
2023-04-30T06:24:00.620Z,80.9
2023-04-30T06:28:57.137Z,83.8
2023-04-30T06:30:11.865Z,78.4
2023-04-30T06:31:25.412Z,81.1
2023-04-30T06:33:53.669Z,81.4
2023-04-30T06:36:21.928Z,79.1
2023-04-30T06:38:50.184Z,81.5
2023-04-30T06:41:18.441Z,77.3
2023-04-30T06:43:46.697Z,76.5
2023-04-30T06:46:14.952Z,75.8
2023-04-30T06:48:43.214Z,75.3
2023-04-30T06:51:11.470Z,77.1
2023-04-30T06:53:39.724Z,76.2
2023-04-30T06:54:54.452Z,76.1
2023-04-30T06:58:36.488Z,74.6
2023-04-30T07:01:04.750Z,72.6
2023-04-30T07:03:33.003Z,69.9
2023-04-30T07:06:01.263Z,68.8
2023-04-30T07:08:29.519Z,66.7
2023-04-30T07:10:57.773Z,66.7
2023-04-30T07:13:26.028Z,65
2023-04-30T07:15:54.288Z,66.8
2023-04-30T07:18:22.539Z,65.4
2023-04-30T07:19:37.269Z,64.3
2023-04-30T07:20:50.821Z,64.7
2023-04-30T07:23:19.076Z,65
2023-04-30T07:25:47.337Z,63.3
2023-04-30T07:30:43.847Z,65.4
2023-04-30T07:33:12.105Z,63.7
2023-04-30T07:35:40.357Z,60.7
2023-04-30T07:38:08.619Z,59.8
2023-04-30T07:40:36.871Z,63.5
2023-04-30T07:43:05.131Z,63.4
2023-04-30T07:44:19.859Z,64.3
2023-04-30T07:45:33.409Z,63.6
2023-04-30T07:48:01.665Z,67.3
2023-04-30T07:50:29.917Z,64
2023-04-30T07:52:58.180Z,61.8
2023-04-30T07:55:26.437Z,61.9
2023-04-30T07:57:54.693Z,60.6
2023-04-30T08:02:51.206Z,58.5
2023-04-30T08:05:19.459Z,60.1
2023-04-30T08:07:47.714Z,58
2023-04-30T08:09:02.451Z,60.4
2023-04-30T08:10:15.992Z,62.1
2023-04-30T08:12:44.250Z,62
2023-04-30T08:15:12.504Z,63.5
2023-04-30T08:17:40.763Z,60.5
2023-04-30T08:20:09.023Z,62.9
2023-04-30T08:22:37.283Z,64.9
2023-04-30T08:25:05.537Z,63.8
2023-04-30T08:27:33.789Z,63.5
2023-04-30T08:30:02.061Z,64.1
2023-04-30T08:33:45.038Z,61.8
2023-04-30T08:34:58.594Z,60.6
2023-04-30T08:37:26.838Z,57.8
2023-04-30T08:39:55.096Z,61.3
2023-04-30T08:42:23.352Z,61.6
2023-04-30T08:44:51.615Z,63.8
2023-04-30T08:47:19.863Z,63.5
2023-04-30T08:49:48.125Z,61.2
2023-04-30T08:52:16.385Z,60.4
2023-04-30T08:54:44.648Z,61.9
2023-04-30T08:57:12.893Z,60.8
2023-04-30T08:58:27.623Z,58.4
2023-04-30T08:59:41.179Z,57.4
2023-04-30T09:04:37.691Z,60.9
2023-04-30T09:07:05.950Z,61.6
2023-04-30T09:09:34.200Z,57.5
2023-04-30T09:12:02.461Z,60.6
2023-04-30T09:14:30.712Z,57.7
2023-04-30T09:16:58.977Z,59.6
2023-04-30T09:19:27.224Z,56
2023-04-30T09:21:55.481Z,56.2
2023-04-30T09:23:10.211Z,58.7
2023-04-30T09:24:23.761Z,59
2023-04-30T09:26:52.023Z,57.4
2023-04-30T09:29:20.273Z,56.1
2023-04-30T09:31:48.529Z,59.3
2023-04-30T09:36:45.049Z,56.8
2023-04-30T09:39:13.304Z,55.6
2023-04-30T09:41:41.554Z,56.9
2023-04-30T09:44:09.812Z,57
2023-04-30T09:46:38.070Z,56.7
2023-04-30T09:47:52.804Z,59.7
2023-04-30T09:49:06.353Z,56.8
2023-04-30T09:51:34.604Z,57.7
2023-04-30T09:54:02.859Z,57.5
2023-04-30T09:56:31.120Z,57.9
2023-04-30T09:58:59.370Z,58.2
2023-04-30T10:01:27.626Z,57.8
2023-04-30T10:03:55.885Z,58.9
2023-04-30T10:08:52.402Z,56.1
2023-04-30T10:11:20.655Z,56.9
2023-04-30T10:12:35.382Z,56.7
2023-04-30T10:13:48.930Z,57.6
2023-04-30T10:16:17.187Z,55.8
2023-04-30T10:18:45.440Z,53.8
2023-04-30T10:21:13.697Z,57.6
2023-04-30T10:23:41.960Z,59.2
2023-04-30T10:26:10.210Z,55.2
2023-04-30T10:28:38.471Z,57.2
2023-04-30T10:31:06.731Z,53.9
2023-04-30T10:33:34.984Z,59.4
2023-04-30T10:36:03.238Z,57.7
2023-04-30T10:38:31.498Z,57.2
2023-04-30T10:40:59.758Z,57
2023-04-30T10:43:28.013Z,56.9
2023-04-30T10:45:56.266Z,55.9
2023-04-30T10:48:24.525Z,55.7
2023-04-30T10:50:52.781Z,57
2023-04-30T10:53:21.046Z,52.8
2023-04-30T10:55:49.295Z,51.9
2023-04-30T10:58:17.552Z,53.9
2023-04-30T11:00:45.810Z,54.1
2023-04-30T11:02:00.561Z,54.2
2023-04-30T11:03:14.106Z,55.8
2023-04-30T11:05:42.367Z,54.5
2023-04-30T11:10:38.876Z,53.1
2023-04-30T11:13:07.140Z,54.5
2023-04-30T11:15:35.392Z,53.6
2023-04-30T11:18:03.647Z,53.7
2023-04-30T11:20:31.905Z,55.3
2023-04-30T11:23:00.165Z,52.9
2023-04-30T11:25:28.423Z,52.5
2023-04-30T11:26:43.154Z,52.5
2023-04-30T11:27:56.694Z,53.3
2023-04-30T11:30:24.952Z,54.2
2023-04-30T11:32:53.204Z,53.7
2023-04-30T11:35:21.468Z,54.3
2023-04-30T11:37:49.721Z,51.9
2023-04-30T11:42:46.238Z,56.3
2023-04-30T11:45:14.493Z,53.7
2023-04-30T11:47:42.753Z,53.9
2023-04-30T11:50:11.006Z,54.2
2023-04-30T11:51:25.734Z,54.2
2023-04-30T11:52:39.282Z,56.3
2023-04-30T11:55:07.544Z,53
2023-04-30T11:57:35.792Z,55.5
2023-04-30T12:00:04.053Z,52.3
2023-04-30T12:02:32.307Z,55.5
2023-04-30T12:05:00.566Z,51.5
2023-04-30T12:07:28.819Z,54.4
2023-04-30T12:09:57.084Z,51.8
2023-04-30T12:14:53.591Z,51.4
2023-04-30T12:16:08.319Z,51.5
2023-04-30T12:17:21.874Z,52.5
2023-04-30T12:19:50.121Z,51.9
2023-04-30T12:22:18.378Z,55.7
2023-04-30T12:24:46.644Z,52.9
2023-04-30T12:27:14.892Z,51.7
2023-04-30T12:29:43.154Z,52.3
2023-04-30T12:32:11.407Z,53.1
2023-04-30T12:34:39.667Z,52.1
2023-04-30T12:37:07.927Z,49.4
2023-04-30T12:39:36.181Z,50.3
2023-04-30T12:40:50.907Z,51.4
2023-04-30T12:44:32.939Z,51
2023-04-30T12:47:01.202Z,50.3
2023-04-30T12:49:29.454Z,50
2023-04-30T12:51:57.718Z,49.3
2023-04-30T12:54:25.973Z,45.7
2023-04-30T12:56:54.224Z,48.4
2023-04-30T12:59:22.484Z,48.6
2023-04-30T13:01:50.739Z,50.3
2023-04-30T13:04:18.999Z,50.8
2023-04-30T13:05:33.731Z,53.1
2023-04-30T13:06:47.277Z,51
2023-04-30T13:09:15.527Z,51.1
2023-04-30T13:11:43.785Z,50.8
2023-04-30T13:16:40.300Z,51.5
2023-04-30T13:19:08.559Z,52.3
2023-04-30T13:21:36.817Z,51
2023-04-30T13:24:05.067Z,50.1
2023-04-30T13:26:33.327Z,48.5
2023-04-30T13:29:01.584Z,48.6
2023-04-30T13:30:16.314Z,48.5
2023-04-30T13:31:29.860Z,49.2
2023-04-30T13:33:58.136Z,48.7
2023-04-30T13:36:26.370Z,49.2
2023-04-30T13:38:54.636Z,49
2023-04-30T13:41:22.889Z,49
2023-04-30T13:43:51.141Z,48.5
2023-04-30T13:48:47.657Z,50.5
2023-04-30T13:51:15.915Z,48.9
2023-04-30T13:53:44.169Z,52.6
2023-04-30T13:54:58.903Z,52.3
2023-04-30T13:56:12.445Z,48.6
2023-04-30T13:58:40.701Z,48.3
2023-04-30T14:01:08.962Z,51.6
2023-04-30T14:03:37.216Z,49.4
2023-04-30T14:06:05.477Z,50
2023-04-30T14:08:33.731Z,50.3
2023-04-30T14:11:01.989Z,50.4
2023-04-30T14:13:30.244Z,49.4
2023-04-30T14:15:58.504Z,50.6
2023-04-30T14:19:41.485Z,49.8
2023-04-30T14:20:55.034Z,49.6
2023-04-30T14:23:23.295Z,47.9
2023-04-30T14:25:51.546Z,50.1
2023-04-30T14:28:19.806Z,48.5
2023-04-30T14:30:48.064Z,48.4
2023-04-30T14:33:16.322Z,48.3
2023-04-30T14:35:44.575Z,49.3
2023-04-30T14:38:12.833Z,47.1
2023-04-30T14:40:41.092Z,50.2
2023-04-30T14:43:09.350Z,50.9
2023-04-30T14:44:24.071Z,50
2023-04-30T14:45:37.627Z,48.8
2023-04-30T14:50:34.134Z,47.8
2023-04-30T14:53:02.398Z,48.5
2023-04-30T14:55:30.653Z,48.6
2023-04-30T14:57:58.911Z,48.1
2023-04-30T15:00:27.169Z,49
2023-04-30T15:02:55.417Z,46.9
2023-04-30T15:05:23.675Z,48.6
2023-04-30T15:07:51.937Z,48.9
2023-04-30T15:09:06.667Z,48.7
2023-04-30T15:10:20.215Z,48.4
2023-04-30T15:12:48.473Z,46.9
2023-04-30T15:15:16.722Z,47.4
2023-04-30T15:17:44.980Z,48.6
2023-04-30T15:22:41.500Z,48.7
2023-04-30T15:25:09.753Z,49.2
2023-04-30T15:27:38.007Z,50
2023-04-30T15:30:06.264Z,48.8
2023-04-30T15:32:34.522Z,48.3
2023-04-30T15:33:49.257Z,49.5
2023-04-30T15:35:02.796Z,50.4
2023-04-30T15:37:31.053Z,50
2023-04-30T15:39:59.314Z,48.4
2023-04-30T15:42:27.568Z,49.6
2023-04-30T15:44:55.826Z,48.9
2023-04-30T15:47:24.086Z,49.2
2023-04-30T15:49:52.346Z,50.6
2023-04-30T15:54:48.860Z,49.9
2023-04-30T15:57:17.108Z,51.2
2023-04-30T15:58:31.845Z,50.4
2023-04-30T15:59:45.385Z,49.1
2023-04-30T16:02:13.643Z,49.6
2023-04-30T16:04:41.903Z,50.9
2023-04-30T16:07:10.164Z,50.9
2023-04-30T16:09:38.421Z,50.8
2023-04-30T16:12:06.669Z,50.8
2023-04-30T16:14:34.935Z,49
2023-04-30T16:17:03.189Z,51.6
2023-04-30T16:19:31.444Z,47.9
2023-04-30T16:21:59.706Z,49.4
2023-04-30T16:24:27.964Z,51.1
2023-04-30T16:26:56.214Z,52.2
2023-04-30T16:29:24.472Z,50.2
2023-04-30T16:31:52.730Z,52.2
2023-04-30T16:34:20.986Z,51.8
2023-04-30T16:36:49.242Z,52
2023-04-30T16:39:17.503Z,51.6
2023-04-30T16:41:45.759Z,50.9
2023-04-30T16:44:14.015Z,51.1
2023-04-30T16:46:42.271Z,50.3
2023-04-30T16:47:57.021Z,50.8
2023-04-30T16:49:10.569Z,51
2023-04-30T16:51:38.820Z,51.9
2023-04-30T16:56:35.339Z,51
2023-04-30T16:59:03.590Z,53
2023-04-30T17:01:31.852Z,54.6
2023-04-30T17:04:00.112Z,54.9
2023-04-30T17:06:28.359Z,54
2023-04-30T17:08:56.621Z,53.9
2023-04-30T17:11:24.876Z,54
2023-04-30T17:12:39.611Z,54.5
2023-04-30T17:13:53.150Z,54.4
2023-04-30T17:16:21.409Z,54.3
2023-04-30T17:18:49.675Z,52.3
2023-04-30T17:21:17.928Z,55.1
2023-04-30T17:23:46.176Z,54.4
2023-04-30T17:28:42.690Z,53.8
2023-04-30T17:31:10.952Z,55.5
2023-04-30T17:33:39.209Z,55.8
2023-04-30T17:36:07.462Z,54.8
2023-04-30T17:37:22.194Z,55.8
2023-04-30T17:38:35.741Z,56
2023-04-30T17:41:03.993Z,56.6
2023-04-30T17:43:32.253Z,55.4
2023-04-30T17:46:00.505Z,56.3
2023-04-30T17:48:28.769Z,57.7
2023-04-30T17:50:57.018Z,56.6
2023-04-30T17:53:25.280Z,59.1
2023-04-30T17:55:53.539Z,55.9
2023-04-30T18:00:50.051Z,57
2023-04-30T18:02:04.779Z,58.3
2023-04-30T18:03:18.325Z,59
2023-04-30T18:05:46.581Z,56.8
2023-04-30T18:08:14.841Z,57.5
2023-04-30T18:10:43.097Z,58.7
2023-04-30T18:13:11.351Z,58.5
2023-04-30T18:15:39.613Z,59.5
2023-04-30T18:18:07.864Z,60.5
2023-04-30T18:20:36.121Z,61.3
2023-04-30T18:23:04.381Z,61.8
2023-04-30T18:25:32.634Z,62.1
2023-04-30T18:26:47.369Z,61.6
2023-04-30T18:30:29.402Z,61.6
2023-04-30T18:32:57.659Z,62.3
2023-04-30T18:35:25.908Z,62.1
2023-04-30T18:37:54.170Z,62.8
2023-04-30T18:40:22.424Z,63.2
2023-04-30T18:42:50.682Z,64.1
2023-04-30T18:45:18.936Z,66.5
2023-04-30T18:47:47.199Z,66.9
2023-04-30T18:50:15.453Z,67.7
2023-04-30T18:51:30.179Z,67.8
2023-04-30T18:52:43.733Z,67.7
2023-04-30T18:55:11.983Z,68
2023-04-30T18:57:40.247Z,68.2
2023-04-30T19:02:36.762Z,68.3
2023-04-30T19:05:05.020Z,69.9
2023-04-30T19:07:33.271Z,68.6
2023-04-30T19:10:01.526Z,70.5
2023-04-30T19:12:29.788Z,71.9
2023-04-30T19:14:58.040Z,71.2
2023-04-30T19:16:12.772Z,70.8
2023-04-30T19:17:26.320Z,70.5
2023-04-30T19:19:54.574Z,71
2023-04-30T19:22:22.832Z,73.4
2023-04-30T19:24:51.090Z,74.3
2023-04-30T19:27:19.346Z,75.7
2023-04-30T19:29:47.601Z,74.5
2023-04-30T19:34:44.115Z,74.8
2023-04-30T19:37:12.373Z,76.3
2023-04-30T19:39:40.633Z,75.9
2023-04-30T19:40:55.363Z,75.4
2023-04-30T19:42:08.908Z,75
2023-04-30T19:44:37.158Z,75
2023-04-30T19:47:05.422Z,76.7
2023-04-30T19:49:33.679Z,76.5
2023-04-30T19:52:01.929Z,77.3
2023-04-30T19:54:30.186Z,77.9
2023-04-30T19:56:58.442Z,78.1
2023-04-30T19:59:26.699Z,82.8
2023-04-30T20:01:54.959Z,81.6
2023-04-30T20:05:37.948Z,79.6
2023-04-30T20:06:51.496Z,78
2023-04-30T20:09:19.744Z,77.7
2023-04-30T20:11:48.015Z,76.7
2023-04-30T20:14:16.260Z,76.3
2023-04-30T20:16:44.518Z,76.6
2023-04-30T20:19:12.774Z,77
2023-04-30T20:21:41.029Z,79.2
2023-04-30T20:24:09.292Z,81.2
2023-04-30T20:26:37.543Z,81.5
2023-04-30T20:29:05.806Z,79.8
2023-04-30T20:30:20.527Z,79.8
2023-04-30T20:31:34.081Z,80.5
2023-04-30T20:36:30.588Z,80.1
2023-04-30T20:38:58.845Z,80.1
2023-04-30T20:41:27.105Z,80.6
2023-04-30T20:43:55.365Z,81.7
2023-04-30T20:46:23.623Z,83.4
2023-04-30T20:48:51.875Z,84.2
2023-04-30T20:51:20.133Z,86
2023-04-30T20:53:48.392Z,85.6
2023-04-30T20:55:03.118Z,85.2
2023-04-30T20:56:16.663Z,85.1
2023-04-30T20:58:44.920Z,85.4
2023-04-30T21:01:13.215Z,84.5
2023-04-30T21:03:41.432Z,82
2023-04-30T21:08:37.951Z,82.6
2023-04-30T21:11:06.206Z,81.1
2023-04-30T21:13:34.460Z,80.6
2023-04-30T21:16:02.719Z,81.1
2023-04-30T21:18:30.983Z,81.8
2023-04-30T21:19:45.709Z,82.8
2023-04-30T21:20:59.251Z,82.2
2023-04-30T21:23:27.513Z,81.6
2023-04-30T21:25:55.770Z,82
2023-04-30T21:28:24.023Z,83.7
2023-04-30T21:30:52.285Z,83.3
2023-04-30T21:33:20.538Z,83.7
2023-04-30T21:35:48.800Z,82.9
2023-04-30T21:40:45.313Z,82.8
2023-04-30T21:43:13.565Z,82.3
2023-04-30T21:44:28.303Z,83.3
2023-04-30T21:45:41.850Z,83.9
2023-04-30T21:48:10.108Z,83.3
2023-04-30T21:50:38.364Z,83.2
2023-04-30T21:53:06.620Z,83.5
2023-04-30T21:55:34.880Z,84
2023-04-30T21:58:03.132Z,84
2023-04-30T22:00:31.390Z,84.1
2023-04-30T22:02:59.643Z,84.2
2023-04-30T22:05:27.902Z,84.3
2023-04-30T22:07:56.164Z,84.1
2023-04-30T22:10:24.423Z,84.5
2023-04-30T22:12:52.682Z,85.6
2023-04-30T22:15:20.929Z,85.4
2023-04-30T22:17:49.187Z,87.3
2023-04-30T22:20:17.454Z,87.1
2023-04-30T22:22:45.704Z,87.5
2023-04-30T22:25:13.964Z,88
2023-04-30T22:27:42.223Z,89.2
2023-04-30T22:30:10.477Z,89.9
2023-04-30T22:32:38.736Z,90
2023-04-30T22:33:53.489Z,90.8
2023-04-30T22:35:07.026Z,91
2023-04-30T22:37:35.285Z,91.5
2023-04-30T22:42:31.807Z,90.9
2023-04-30T22:45:00.069Z,89.7
2023-04-30T22:47:28.314Z,91.7
2023-04-30T22:49:56.571Z,92.8
2023-04-30T22:52:24.833Z,93
2023-04-30T22:54:53.086Z,93.1
2023-04-30T22:57:21.343Z,92.8
2023-04-30T22:58:36.075Z,91.8
2023-04-30T22:59:49.621Z,92
2023-04-30T23:02:17.875Z,92.4
2023-04-30T23:04:46.135Z,92.9
2023-04-30T23:07:14.389Z,92.7
2023-04-30T23:09:42.651Z,92.1
2023-04-30T23:14:39.162Z,90.4
2023-04-30T23:17:07.425Z,88.5
2023-04-30T23:19:35.684Z,88.5
2023-04-30T23:22:03.935Z,89.6
2023-04-30T23:23:18.667Z,88.1
2023-04-30T23:24:32.216Z,88.3
2023-04-30T23:27:00.468Z,88.3
2023-04-30T23:29:28.730Z,87
2023-04-30T23:31:56.989Z,85.8
2023-04-30T23:34:25.238Z,88.1
2023-04-30T23:36:53.498Z,86.6
2023-04-30T23:39:21.758Z,87.7
2023-04-30T23:41:50.012Z,87.3
2023-04-30T23:46:46.528Z,87
2023-04-30T23:48:01.255Z,89
2023-04-30T23:49:14.806Z,89.1
2023-04-30T23:51:43.064Z,90.4
2023-04-30T23:54:11.312Z,91.7
2023-04-30T23:56:39.574Z,90.2
2023-04-30T23:59:07.829Z,90
